createdAt,value
2023-01-20T00:01:40.445Z,10.17
2023-01-20T00:06:42.485Z,8.70
2023-01-20T00:11:44.732Z,13.43
2023-01-20T00:16:48.197Z,11.93
2023-01-20T00:21:50.205Z,8.10
2023-01-20T00:26:52.454Z,9.67
2023-01-20T00:31:55.667Z,10.33
2023-01-20T00:36:58.015Z,12.33
2023-01-20T00:42:00.415Z,13.10
2023-01-20T00:47:03.799Z,13.10
2023-01-20T00:52:06.348Z,14.97
2023-01-20T00:57:08.800Z,11.93
2023-01-20T01:02:12.569Z,10.70
2023-01-20T01:07:14.731Z,11.83
2023-01-20T01:12:16.770Z,9.27
2023-01-20T01:17:20.270Z,12.70
2023-01-20T01:22:22.670Z,17.80
2023-01-20T01:27:24.704Z,12.67
2023-01-20T01:32:28.423Z,13.50
2023-01-20T01:37:30.785Z,17.73
2023-01-20T01:42:33.060Z,13.90
2023-01-20T01:47:37.516Z,16.30
2023-01-20T01:52:42.887Z,15.47
2023-01-20T01:57:45.925Z,8.93
2023-01-20T02:02:49.730Z,11.53
2023-01-20T02:07:53.016Z,16.63
2023-01-20T02:12:55.313Z,14.67
2023-01-20T02:18:12.932Z,23.37
2023-01-20T02:23:30.505Z,17.53
2023-01-20T02:29:17.028Z,16.57
2023-01-20T02:34:28.595Z,17.67
2023-01-20T02:39:40.245Z,14.77
2023-01-20T02:44:49.829Z,15.40
2023-01-20T02:50:14.560Z,15.97
2023-01-20T02:55:22.515Z,16.00
2023-01-20T03:00:29.237Z,15.60
2023-01-20T03:05:37.316Z,21.10
2023-01-20T03:10:41.783Z,15.13
2023-01-20T03:15:54.138Z,21.60
2023-01-20T03:20:58.667Z,23.53
2023-01-20T03:26:02.701Z,26.50
2023-01-20T03:31:11.958Z,19.17
2023-01-20T03:36:16.752Z,19.40
2023-01-20T03:41:35.770Z,20.37
2023-01-20T03:46:43.460Z,20.00
2023-01-20T03:51:57.128Z,22.33
2023-01-20T03:57:04.547Z,17.83
2023-01-20T04:02:08.940Z,22.33
2023-01-20T04:07:17.689Z,18.20
2023-01-20T04:12:19.920Z,21.40
2023-01-20T04:17:26.453Z,22.63
2023-01-20T04:22:35.018Z,21.10
2023-01-20T04:27:37.181Z,21.43
2023-01-20T04:32:39.682Z,21.10
2023-01-20T04:37:43.235Z,17.57
2023-01-20T04:42:45.531Z,29.57
2023-01-20T04:47:47.488Z,24.90
2023-01-20T04:52:55.198Z,25.00
2023-01-20T04:57:57.329Z,23.00
2023-01-20T05:02:59.466Z,26.07
2023-01-20T05:08:02.677Z,21.67
2023-01-20T05:13:04.681Z,25.27
2023-01-20T05:18:06.782Z,28.07
2023-01-20T05:23:10.398Z,21.30
2023-01-20T05:28:12.613Z,25.00
2023-01-20T05:33:14.796Z,27.70
2023-01-20T05:38:18.369Z,24.33
2023-01-20T05:43:20.295Z,25.90
2023-01-20T05:48:22.359Z,27.07
2023-01-20T05:53:26.094Z,25.17
2023-01-20T05:58:28.563Z,27.27
2023-01-20T06:03:30.999Z,25.90
2023-01-20T06:08:35.008Z,24.80
2023-01-20T06:13:37.174Z,26.60
2023-01-20T06:18:39.295Z,26.60
2023-01-20T06:23:42.731Z,29.33
2023-01-20T06:28:44.898Z,31.07
2023-01-20T06:33:47.203Z,38.20
2023-01-20T06:38:50.832Z,32.40
2023-01-20T06:43:52.782Z,27.10
2023-01-20T06:48:54.844Z,30.93
2023-01-20T06:53:58.577Z,27.60
2023-01-20T06:59:00.813Z,31.50
2023-01-20T07:04:03.570Z,37.13
2023-01-20T07:09:08.944Z,33.47
2023-01-20T07:14:11.088Z,29.80
2023-01-20T07:19:13.965Z,24.97
2023-01-20T07:24:23.605Z,27.23
2023-01-20T07:29:26.921Z,30.60
2023-01-20T07:34:28.972Z,32.27
2023-01-20T07:39:32.560Z,34.40
2023-01-20T07:44:34.955Z,28.93
2023-01-20T07:49:37.305Z,32.07
2023-01-20T07:54:40.845Z,32.30
2023-01-20T07:59:42.944Z,26.07
2023-01-20T08:05:08.729Z,30.03
2023-01-20T08:10:12.335Z,30.33
2023-01-20T08:15:14.796Z,29.27
2023-01-20T08:20:19.524Z,31.00
2023-01-20T08:25:23.049Z,34.40
2023-01-20T08:30:25.620Z,36.57
2023-01-20T08:35:27.795Z,25.53
2023-01-20T08:40:33.290Z,30.17
2023-01-20T08:45:36.570Z,25.50
2023-01-20T08:50:38.416Z,22.33
2023-01-20T08:55:41.936Z,25.13
2023-01-20T09:00:44.136Z,25.27
2023-01-20T09:05:46.679Z,29.00
2023-01-20T09:10:50.144Z,27.07
2023-01-20T09:15:52.809Z,21.83
2023-01-20T09:20:54.869Z,22.93
2023-01-20T09:26:01.566Z,24.10
2023-01-20T09:31:06.795Z,21.90
2023-01-20T09:36:31.557Z,20.87
2023-01-20T09:41:37.572Z,19.80
2023-01-20T09:46:51.976Z,19.10
2023-01-20T09:52:02.570Z,19.70
2023-01-20T09:57:10.641Z,19.57
2023-01-20T10:02:19.746Z,18.47
2023-01-20T10:07:34.587Z,17.10
2023-01-20T10:12:44.204Z,16.23
2023-01-20T10:17:52.340Z,17.87
2023-01-20T10:23:01.586Z,15.93
2023-01-20T10:28:11.635Z,20.07
2023-01-20T10:33:15.283Z,16.60
2023-01-20T10:38:26.835Z,20.00
2023-01-20T10:43:31.183Z,18.63
2023-01-20T10:54:59.879Z,20.07
2023-01-20T11:00:06.423Z,17.33
2023-01-20T11:05:35.560Z,17.30
2023-01-20T11:10:37.700Z,16.93
2023-01-20T11:15:44.574Z,14.70
2023-01-20T11:20:48.333Z,15.93
2023-01-20T11:25:56.185Z,18.27
2023-01-20T11:30:59.667Z,15.20
2023-01-20T11:36:03.911Z,16.50
2023-01-20T11:41:06.427Z,18.40
2023-01-20T11:46:34.621Z,17.53
2023-01-20T11:51:45.599Z,19.87
2023-01-20T11:56:52.364Z,21.20
2023-01-20T12:01:58.960Z,14.13
2023-01-20T12:07:05.203Z,16.33
2023-01-20T12:12:15.045Z,15.43
2023-01-20T12:17:33.266Z,20.27
2023-01-20T12:22:44.989Z,17.07
2023-01-20T12:27:53.964Z,16.97
2023-01-20T12:32:58.187Z,20.07
2023-01-20T12:38:07.135Z,13.33
2023-01-20T12:43:50.503Z,16.07
2023-01-20T12:49:11.174Z,13.53
2023-01-20T12:54:54.384Z,14.30
2023-01-20T13:00:11.664Z,14.03
2023-01-20T13:06:07.551Z,15.80
2023-01-20T13:11:20.971Z,17.40
2023-01-20T13:16:32.660Z,18.27
2023-01-20T13:21:34.936Z,14.27
2023-01-20T13:26:38.275Z,19.40
2023-01-20T13:31:44.901Z,15.77
2023-01-20T13:37:21.962Z,18.50
2023-01-20T13:42:51.946Z,19.90
2023-01-20T13:48:10.364Z,15.17
2023-01-20T13:53:26.290Z,16.53
2023-01-20T13:58:31.525Z,17.93
2023-01-20T14:03:35.450Z,15.63
2023-01-20T14:08:39.440Z,20.30
2023-01-20T14:13:52.571Z,18.37
2023-01-20T14:18:57.808Z,15.37
2023-01-20T14:23:59.861Z,19.17
2023-01-20T14:34:45.249Z,21.93
2023-01-20T14:39:49.077Z,17.03
2023-01-20T14:44:55.980Z,19.47
2023-01-20T14:49:58.471Z,17.70
2023-01-20T14:55:00.584Z,19.47
2023-01-20T15:00:14.295Z,21.33
2023-01-20T15:05:25.517Z,23.40
2023-01-20T15:10:27.439Z,21.13
2023-01-20T15:15:32.292Z,20.60
2023-01-20T15:20:35.685Z,21.70
2023-01-20T15:25:37.866Z,19.50
2023-01-20T15:30:41.487Z,19.03
2023-01-20T15:35:43.747Z,15.77
2023-01-20T15:40:45.924Z,23.13
2023-01-20T15:45:49.175Z,21.13
2023-01-20T15:50:51.428Z,21.60
2023-01-20T15:55:53.687Z,14.67
2023-01-20T16:00:58.857Z,21.47
2023-01-20T16:06:00.799Z,17.00
2023-01-20T16:11:18.505Z,15.60
2023-01-20T16:16:25.454Z,19.37
2023-01-20T16:21:28.579Z,20.43
2023-01-20T16:26:34.110Z,17.60
2023-01-20T16:31:37.731Z,19.30
2023-01-20T16:36:39.913Z,16.10
2023-01-20T16:41:47.533Z,17.60
2023-01-20T16:46:51.084Z,17.27
2023-01-20T16:51:53.105Z,16.60
2023-01-20T16:56:55.189Z,20.10
2023-01-20T17:01:58.573Z,20.77
2023-01-20T17:07:00.330Z,19.43
2023-01-20T17:12:02.392Z,21.83
2023-01-20T17:17:05.534Z,20.03
2023-01-20T17:22:23.312Z,23.93
2023-01-20T17:27:25.326Z,23.47
2023-01-20T17:32:28.956Z,15.67
2023-01-20T17:37:31.206Z,24.60
2023-01-20T17:42:32.874Z,20.40
2023-01-20T17:47:36.424Z,26.53
2023-01-20T17:52:38.565Z,21.80
2023-01-20T17:57:40.736Z,23.73
2023-01-20T18:08:28.971Z,23.03
2023-01-20T18:13:30.861Z,21.63
2023-01-20T18:18:57.916Z,27.80
2023-01-20T18:24:00.846Z,32.70
2023-01-20T18:29:05.144Z,26.77
2023-01-20T18:34:11.293Z,26.27
2023-01-20T18:39:16.190Z,36.53
2023-01-20T18:44:18.952Z,29.43
2023-01-20T18:49:22.302Z,30.00
2023-01-20T18:54:24.051Z,25.17
2023-01-20T18:59:26.513Z,27.43
2023-01-20T19:04:29.950Z,34.33
2023-01-20T19:09:31.779Z,25.83
2023-01-20T19:14:34.355Z,28.43
2023-01-20T19:19:37.841Z,25.27
2023-01-20T19:24:39.631Z,29.33
2023-01-20T19:29:41.833Z,33.07
2023-01-20T19:34:45.182Z,29.53
2023-01-20T19:39:47.227Z,28.73
2023-01-20T19:44:49.085Z,28.33
2023-01-20T19:49:52.616Z,28.13
2023-01-20T19:54:54.812Z,23.70
2023-01-20T19:59:57.362Z,29.63
2023-01-20T20:05:28.938Z,29.17
2023-01-20T20:10:42.269Z,29.93
2023-01-20T20:15:47.037Z,24.50
2023-01-20T20:20:51.128Z,27.63
2023-01-20T20:25:55.450Z,27.03
2023-01-20T20:31:04.293Z,26.03
2023-01-20T20:36:09.537Z,28.30
2023-01-20T20:41:11.697Z,30.27
2023-01-20T20:46:15.820Z,21.27
2023-01-20T20:51:19.623Z,21.10
2023-01-20T20:56:23.014Z,29.00
2023-01-20T21:01:25.248Z,27.83
2023-01-20T21:06:29.635Z,30.77
2023-01-20T21:11:32.576Z,26.33
2023-01-20T21:16:35.231Z,23.50
2023-01-20T21:21:39.043Z,27.23
2023-01-20T21:26:41.399Z,27.10
2023-01-20T21:31:43.540Z,23.03
2023-01-20T21:36:46.756Z,28.13
2023-01-20T21:41:49.075Z,28.27
2023-01-20T21:46:51.313Z,26.57
2023-01-20T21:51:55.315Z,27.27
2023-01-20T21:56:57.861Z,40.60
2023-01-20T22:01:59.943Z,24.43
2023-01-20T22:07:03.151Z,26.90
2023-01-20T22:12:06.091Z,20.80
2023-01-20T22:17:09.158Z,18.93
2023-01-20T22:22:15.079Z,17.40
2023-01-20T22:27:17.444Z,16.53
2023-01-20T22:32:19.687Z,21.90
2023-01-20T22:37:22.906Z,27.57
2023-01-20T22:42:25.011Z,17.73
2023-01-20T22:47:27.157Z,18.97
2023-01-20T22:52:30.655Z,20.37
2023-01-20T22:57:33.067Z,20.13
2023-01-20T23:02:35.308Z,17.37
2023-01-20T23:07:38.790Z,21.53
2023-01-20T23:12:40.722Z,20.33
2023-01-20T23:17:42.837Z,16.53
2023-01-20T23:22:46.083Z,20.90
2023-01-20T23:27:47.784Z,13.67
2023-01-20T23:32:49.800Z,12.60
2023-01-20T23:37:53.460Z,15.63
2023-01-20T23:42:55.568Z,13.53
2023-01-20T23:47:57.319Z,14.57
2023-01-20T23:53:00.441Z,14.37
2023-01-20T23:58:03.586Z,14.70
